Observations for RIMINI CIV IT-AFB, Italy (LIPR)

LIPR 201950Z 20002KT 1000 R31/P1500N BR NSC 03/02 Q1025 
LIPR 201920Z VRB01KT 0700 R31/P1500N FG NSC 04/03 Q1025 
LIPR 201850Z 13002KT 0700 R31/P1500N FG NSC 04/04 Q1025 
LIPR 201820Z 11003KT 0700 R31/P1500N FG NSC 05/04 Q1025 
LIPR 201750Z VRB02KT 1000 R31/P1500N BR NSC 05/04 Q1025 
LIPR 201720Z 11002KT 1000 R31/P1500N BR NSC 05/04 Q1025 
LIPR 201650Z 09002KT 1500 BR NSC 06/05 Q1025
LIPR 201620Z VRB02KT 1500 BR NSC 06/05 Q1025
LIPR 201550Z 03003KT 010V070 2000 BR NSC 07/05 Q1025
LIPR 201520Z 04003KT 360V080 3000 BR NSC 07/04 Q1025
LIPR 201450Z 02004KT 340V050 3000 BR NSC 07/04 Q1025
LIPR 201420Z VRB02KT 5000 BR NSC 07/04 Q1025
LIPR 201350Z 05004KT 010V090 5000 BR NSC 07/04 Q1025
LIPR 201320Z 02004KT 350V070 5000 BR NSC 07/04 Q1025
LIPR 201250Z 01005KT 340V050 5000 BR NSC 06/04 Q1025
LIPR 201220Z 36005KT 330V030 5000 BR NSC 07/04 Q1025
LIPR 201150Z 01005KT 340V070 5000 BR NSC 07/04 Q1025
LIPR 201120Z 01005KT 350V050 5000 BR NSC 06/03 Q1025
LIPR 201050Z 02004KT 350V070 4000 BR NSC 05/03 Q1026
LIPR 201020Z 02004KT 360V060 2500 BR FEW003 05/03 Q1026 
LIPR 200950Z 05003KT 010V090 2500 BR NSC 05/05 Q1026
LIPR 200920Z 04003KT 2500 BR FEW004 04/04 Q1025 
LIPR 200850Z VRB02KT 2000 1200E R31/1300U BR FEW003 SCT040 04/03 Q1025  
LIPR 200820Z VRB02KT 1500 0500E R31/0650V1400D PRFG FEW001 SCT040 03/03 Q1025   
LIPR 200750Z VRB02KT 0800 R31/0900VP1500D FG FEW001 SCT040 02/02 Q1025  
LIPR 200720Z VRB01KT 1200 R31/1300U BR NSC 02/01 Q1025  
LIPR 200650Z VRB02KT 0300 R31/0400N FG NSC 01/01 Q1024  
LIPR 200620Z 18003KT 0050 R31/0250N FG VV001 02/02 Q1024
LIPR 200550Z AUTO 19004KT 0100 R31/0375N FG VV001 02/02 Q1024   
LIPR 200520Z AUTO 20003KT 0100 R31/0500N FG VV002 02/01 Q1024   
LIPR 200450Z AUTO 20003KT 0050 R31/0375N FG VV001 02/02 Q1024   
LIPR 200420Z AUTO 26003KT 0050 R31/0225N FG VV001 03/02 Q1023   
LIPR 200350Z AUTO 25003KT 220V290 0050 R31/0300N FG VV001 02/02 Q1023   
LIPR 200320Z AUTO 19002KT 0050 R31/0350N FG VV001 02/02 Q1023   
LIPR 200250Z AUTO VRB02KT 0050 R31/0200N FG VV001 02/01 Q1023   
LIPR 200220Z AUTO VRB01KT 0000 R31/0175N FG VV001 02/02 Q1023   
LIPR 200150Z AUTO 19003KT 0000 R31/0175N FG VV001 02/02 Q1023   
LIPR 200120Z AUTO 18002KT 0100 R31/0225N FG VV001 01/M00 Q1023  
LIPR 200050Z AUTO VRB01KT 6000 FEW001/// 01/M00 Q1023   
LIPR 200050Z AUTO VRB01KT 6000 FEW001 01/M00 Q1023
LIPR 200020Z AUTO VRB01KT 7000 NCD 01/M00 Q1023 
LIPR 192350Z AUTO 21002KT 5000 BR NCD 01/00 Q1023   
LIPR 192320Z AUTO 19004KT 5000 BR NCD 02/00 Q1023   
LIPR 192250Z AUTO VRB01KT 5000 BR NCD 02/01 Q1023   
LIPR 192220Z AUTO 18002KT 4700 BR NCD 02/01 Q1023   
LIPR 192150Z 19002KT 6000 NSC 03/01 Q1023   
LIPR 192120Z 20002KT 7000 NSC 03/02 Q1023   
LIPR 192050Z 25003KT 7000 NSC 03/01 Q1023   
LIPR 192020Z VRB01KT 7000 NSC 04/01 Q1023   
LIPR 191950Z VRB01KT 7000 NSC 04/02 Q1022   
LIPR 191920Z 19003KT 7000 NSC 05/02 Q1022